»·PEaware :: N5002T KSBA-KSNA

N5002T :: KSBA-KSNA

FLIGHT INFORMATION

Flight Status: Arrived
Operator: Privately registered:
United States
More flights under this callsign
Pilot: Hunter M. (19355)
Aircraft: CESSNA 172 SKYHAWK
(C172)
More flights by this aircraft type
Origin: KSBA Santa Barbara Mun
United States
Destination: KSNA John Wayne-Orange Co
United States
More flights between these airports :: More routes between these airports
Route: KWANG CMA VNY V186 BAYJY V363 POXKU V8 SLI
File this flight plan on PilotEdge
Remarks: +CW / TEC route SBAP6
Altitude:
(Current/Filed)
5,000ft
Speed:
(Current/Filed)
118kts
Departed: 17-May-19 11:01 AM
Arrived: 17-May-19 12:18 PM
Distance/Time
Traveled:
108nm/1:16
Distance/Time
To Go:
Arrived

Flight Plot

Page will automatically refresh every two minutes.


Map Options




Map Legend


Flown Route
Filed Route
Departure Airport
Arrival Airport
Navaid (VOR, NDB)
Fix

Horizontal Profiles

Position Reports

Time Latitude Longitude Heading Altitude Ground
Speed
17-May-19 10:47 34.431477 -119.831912 357 13ft 0kts
17-May-19 10:48 34.431478 -119.831912 356 13ft 0kts
17-May-19 10:49 34.431479 -119.831912 356 13ft 0kts
17-May-19 10:50 34.431479 -119.831912 356 13ft 0kts
17-May-19 10:51 34.431480 -119.831912 356 13ft 0kts
17-May-19 10:52 34.431481 -119.831913 356 13ft 0kts
17-May-19 10:53 34.431482 -119.831913 355 13ft 0kts
17-May-19 10:54 34.431483 -119.831913 355 13ft 0kts
17-May-19 10:55 34.431376 -119.832060 178 13ft 2kts
17-May-19 10:56 34.429551 -119.832023 187 13ft 7kts
17-May-19 10:57 34.429089 -119.833509 267 13ft 0kts
17-May-19 10:58 34.429009 -119.835075 241 13ft 5kts
17-May-19 10:59 34.428576 -119.835184 179 13ft 0kts
17-May-19 11:00 34.428575 -119.835184 179 13ft 0kts
17-May-19 11:01 34.427722 -119.840208 273 70ft 60kts
17-May-19 11:02 34.422313 -119.863052 261 768ft 83kts
17-May-19 11:02 34.415352 -119.884382 261 1323ft 78kts
17-May-19 11:04 34.405591 -119.912577 262 2222ft 76kts
17-May-19 11:04 34.397524 -119.931328 224 2836ft 89kts
17-May-19 11:05 34.369023 -119.917283 152 3228ft 119kts
17-May-19 11:06 34.343401 -119.901476 151 4116ft 90kts
17-May-19 11:07 34.332026 -119.882819 81 4802ft 66kts
17-May-19 11:08 34.328245 -119.856050 89 5078ft 107kts
17-May-19 11:09 34.322697 -119.819246 89 4996ft 109kts
17-May-19 11:10 34.317355 -119.783141 89 4999ft 108kts
17-May-19 11:11 34.312013 -119.747021 89 5000ft 109kts
17-May-19 11:12 34.306591 -119.710467 89 5000ft 110kts
17-May-19 11:13 34.301133 -119.673762 89 5000ft 111kts
17-May-19 11:14 34.295634 -119.636855 89 5000ft 111kts
17-May-19 11:15 34.290143 -119.600083 89 4999ft 111kts
17-May-19 11:16 34.284617 -119.563153 89 5000ft 111kts
17-May-19 11:17 34.279104 -119.526365 90 4996ft 112kts
17-May-19 11:18 34.273544 -119.489371 90 5001ft 111kts
17-May-19 11:19 34.267969 -119.452336 90 4999ft 112kts
17-May-19 11:20 34.267280 -119.416038 80 4999ft 108kts
17-May-19 11:21 34.265777 -119.379155 82 5001ft 110kts
17-May-19 11:22 34.264869 -119.342090 79 5053ft 108kts
17-May-19 11:23 34.262239 -119.304425 81 5045ft 110kts
17-May-19 11:24 34.261150 -119.266579 81 4997ft 112kts
17-May-19 11:25 34.260162 -119.229041 80 4999ft 111kts
17-May-19 11:26 34.259143 -119.191684 81 4999ft 111kts
17-May-19 11:27 34.258092 -119.154023 81 5000ft 112kts
17-May-19 11:28 34.256557 -119.115854 84 5000ft 114kts
17-May-19 11:29 34.254172 -119.077475 84 4999ft 114kts
17-May-19 11:30 34.251859 -119.039184 83 4999ft 113kts
17-May-19 11:31 34.249591 -119.001188 83 5000ft 113kts
17-May-19 11:32 34.247301 -118.963340 83 5000ft 112kts
17-May-19 11:33 34.245034 -118.925513 83 4999ft 113kts
17-May-19 11:34 34.242854 -118.887467 83 4999ft 113kts
17-May-19 11:35 34.240880 -118.849282 83 5000ft 114kts
17-May-19 11:36 34.239623 -118.810641 83 5002ft 116kts
17-May-19 11:37 34.238885 -118.771315 85 5001ft 117kts
17-May-19 11:38 34.237472 -118.731913 85 5001ft 117kts
17-May-19 11:39 34.235997 -118.692556 85 4995ft 114kts
17-May-19 11:40 34.234301 -118.654585 85 5002ft 113kts
17-May-19 11:41 34.232470 -118.616541 85 5001ft 113kts
17-May-19 11:42 34.230168 -118.578102 85 5003ft 115kts
17-May-19 11:43 34.227301 -118.539435 85 5000ft 115kts
17-May-19 11:44 34.224450 -118.500723 85 4999ft 115kts
17-May-19 11:45 34.204341 -118.477232 177 5012ft 122kts
17-May-19 11:46 34.196243 -118.444630 76 5003ft 112kts
17-May-19 11:47 34.186919 -118.407220 110 5002ft 122kts
17-May-19 11:48 34.176074 -118.369347 98 5000ft 119kts
17-May-19 11:49 34.165592 -118.330901 102 4999ft 121kts
17-May-19 11:50 34.154463 -118.292074 103 5000ft 123kts
17-May-19 11:51 34.142926 -118.252841 103 4996ft 124kts
17-May-19 11:52 34.131546 -118.213429 103 5001ft 124kts
17-May-19 11:53 34.120224 -118.173842 103 5002ft 124kts
17-May-19 11:54 34.108841 -118.134165 103 5048ft 128kts
17-May-19 11:55 34.096144 -118.090168 103 4975ft 125kts
17-May-19 11:56 34.083979 -118.052330 103 4998ft 119kts
17-May-19 11:57 34.071946 -118.015178 103 4998ft 118kts
17-May-19 11:58 34.061137 -117.978795 99 4999ft 114kts
17-May-19 11:59 34.051051 -117.942635 99 4999ft 113kts
17-May-19 12:00 34.041026 -117.906416 99 4998ft 113kts
17-May-19 12:01 34.031070 -117.870120 99 5000ft 114kts
17-May-19 12:02 34.021132 -117.833745 99 4999ft 114kts
17-May-19 12:03 34.011279 -117.797536 99 5000ft 114kts
17-May-19 12:04 33.986007 -117.781601 186 5008ft 116kts
17-May-19 12:05 33.953727 -117.782699 192 5000ft 115kts
17-May-19 12:06 33.921394 -117.781783 162 5000ft 119kts
17-May-19 12:07 33.890183 -117.767764 161 4967ft 123kts
17-May-19 12:08 33.856201 -117.753630 171 4314ft 130kts
17-May-19 12:09 33.830470 -117.768522 232 3861ft 104kts
17-May-19 12:10 33.805490 -117.786265 220 3523ft 104kts
17-May-19 12:11 33.780163 -117.802329 220 2953ft 100kts
17-May-19 12:12 33.755812 -117.817683 217 2199ft 97kts
17-May-19 12:13 33.732579 -117.829631 218 1486ft 82kts
17-May-19 12:14 33.713320 -117.844302 223 1455ft 80kts
17-May-19 12:15 33.696052 -117.855766 220 426ft 61kts
17-May-19 12:16 33.682567 -117.864376 218 121ft 48kts
17-May-19 12:17 33.678228 -117.867769 293 59ft 5kts
17-May-19 12:18 33.678423 -117.868234 292 59ft 0kts

Navigation Log

Ident Type
Flight plan parsing failed, navigation log unavailable